Time;durP1;ratioP1;P1;durP2;ratioP2;P2;SDS_P1;SDS_P2;PMS_P1;PMS_P2;Temp;Humidity;BMP_temperature;BMP_pressure;BME280_temperature;BME280_humidity;BME280_pressure;Samples;Min_cycle;Max_cycle;Signal;HPM_P1;HPM_P2
2022/02/03 00:01:21;;;;;;;30.47;16.00;;;;;;;0.81;100.00;98911.87;4152227;83;21112;-90
2022/02/03 00:07:25;;;;;;;27.40;15.10;;;;;;;0.79;100.00;98913.53;4083087;85;21089;-92
2022/02/03 00:26:11;;;;;;;26.93;14.58;;;;;;;0.76;100.00;98941.10;4148735;84;21126;-91
2022/02/03 00:32:44;;;;;;;19.20;10.73;;;;;;;0.74;100.00;98953.28;4170293;83;21637;-91
2022/02/03 00:51:00;;;;;;;23.92;12.98;;;;;;;0.69;100.00;98987.89;4174566;84;21119;-91
2022/02/03 00:57:08;;;;;;;23.18;10.53;;;;;;;0.64;100.00;98999.38;4174951;83;22326;-91
2022/02/03 01:03:16;;;;;;;20.77;11.60;;;;;;;0.58;100.00;99001.39;4161713;83;21079;-92
2022/02/03 01:09:28;;;;;;;19.42;10.40;;;;;;;0.55;100.00;99013.36;4199845;83;21133;-90
2022/02/03 01:15:42;;;;;;;17.12;10.55;;;;;;;0.47;100.00;99016.22;4218452;81;20991;-92
2022/02/03 01:34:33;;;;;;;16.17;9.18;;;;;;;0.21;100.00;99027.93;4185594;83;21083;-91
2022/02/03 01:47:00;;;;;;;15.25;9.35;;;;;;;0.14;100.00;99041.05;4070508;85;21055;-91
2022/02/03 01:52:53;;;;;;;14.53;8.13;;;;;;;0.12;100.00;99056.69;4159679;83;21006;-90
2022/02/03 01:58:59;;;;;;;19.32;8.73;;;;;;;0.07;100.00;99064.88;4085330;85;21088;-90
2022/02/03 02:05:36;;;;;;;15.63;9.13;;;;;;;0.07;100.00;99060.84;4177411;83;21211;-90
2022/02/03 02:12:23;;;;;;;20.90;11.70;;;;;;;0.07;100.00;99071.61;4138628;84;21038;-91
2022/02/03 02:38:28;;;;;;;22.27;13.62;;;;;;;0.06;100.00;99096.41;4228711;81;21093;-91
2022/02/03 02:44:24;;;;;;;21.23;13.28;;;;;;;-0.07;100.00;99081.08;4133978;84;21360;-91
2022/02/03 02:50:43;;;;;;;19.32;12.35;;;;;;;0.05;100.00;99123.63;4152380;83;21069;-89
2022/02/03 03:40:56;;;;;;;18.67;10.45;;;;;;;-0.07;100.00;99195.45;4223238;83;21039;-91
2022/02/03 03:47:07;;;;;;;17.00;9.10;;;;;;;-0.10;100.00;99200.89;4191153;82;21044;-92
2022/02/03 03:53:14;;;;;;;14.38;8.60;;;;;;;-0.14;100.00;99212.53;4210065;82;21572;-90
2022/02/03 03:59:57;;;;;;;14.40;8.40;;;;;;;-0.15;100.00;99223.05;4219377;82;21111;-92
2022/02/03 04:32:33;;;;;;;15.05;8.63;;;;;;;-0.29;100.00;99260.73;4244359;82;21087;-91
2022/02/03 04:38:34;;;;;;;15.63;9.08;;;;;;;-0.27;100.00;99280.61;4219203;81;21097;-92
2022/02/03 05:05:28;;;;;;;17.23;9.63;;;;;;;-0.34;100.00;99303.85;4227559;82;21103;-91
2022/02/03 05:11:40;;;;;;;16.20;9.15;;;;;;;-0.32;100.00;99314.31;4229969;82;21037;-91
2022/02/03 05:18:24;;;;;;;14.23;9.68;;;;;;;-0.35;100.00;99316.25;4129461;84;21088;-92
2022/02/03 06:09:42;;;;;;;14.03;7.63;;;;;;;-0.36;100.00;99365.78;4151771;83;21083;-92
2022/02/03 06:15:39;;;;;;;18.42;9.78;;;;;;;-0.34;100.00;99374.33;4228932;81;21578;-93
2022/02/03 06:21:48;;;;;;;15.75;8.70;;;;;;;-0.35;100.00;99388.34;4240622;82;21093;-90
2022/02/03 06:27:47;;;;;;;10.82;5.90;;;;;;;-0.43;100.00;99415.10;4209002;82;21124;-91
2022/02/03 06:33:48;;;;;;;7.37;4.05;;;;;;;-0.43;100.00;99415.10;4206523;81;21096;-91
2022/02/03 06:39:51;;;;;;;6.33;3.42;;;;;;;-0.49;100.00;99434.56;4215120;82;21153;-90
2022/02/03 06:46:00;;;;;;;7.92;3.75;;;;;;;-0.55;100.00;99437.62;4197048;83;21086;-91
2022/02/03 06:52:09;;;;;;;8.73;4.03;;;;;;;-0.60;100.00;99442.53;4227842;81;21599;-92
2022/02/03 06:58:14;;;;;;;9.90;5.53;;;;;;;-0.59;100.00;99436.59;4175763;83;21127;-90
2022/02/03 07:04:21;;;;;;;20.57;9.45;;;;;;;-0.60;100.00;99442.53;4187021;83;22109;-91
2022/02/03 07:10:18;;;;;;;23.90;10.75;;;;;;;-0.51;100.00;99445.34;4128221;84;21121;-90
2022/02/03 07:16:21;;;;;;;19.17;10.72;;;;;;;-0.46;100.00;99446.08;4063979;85;21270;-91
2022/02/03 07:22:22;;;;;;;26.33;10.58;;;;;;;-0.41;100.00;99456.73;4066322;86;22296;-90
2022/02/03 07:28:23;;;;;;;14.15;9.15;;;;;;;-0.41;100.00;99456.73;4204973;82;21230;-90
2022/02/03 07:34:25;;;;;;;20.43;11.30;;;;;;;-0.38;100.00;99460.22;4202802;82;21563;-90
2022/02/03 07:40:27;;;;;;;20.37;10.00;;;;;;;-0.31;100.00;99475.43;4137731;82;21067;-90
2022/02/03 07:46:32;;;;;;;25.10;12.00;;;;;;;-0.33;99.95;99479.52;4214380;82;21063;-91
2022/02/03 07:52:35;;;;;;;21.02;11.70;;;;;;;-0.33;99.95;99483.55;4159027;82;21597;-90
2022/02/03 07:58:36;;;;;;;23.42;11.28;;;;;;;-0.30;99.79;99489.13;4170790;83;21139;-90
2022/02/03 08:04:45;;;;;;;29.65;12.30;;;;;;;-0.19;99.49;99505.94;4183228;83;21121;-92
2022/02/03 08:10:59;;;;;;;24.63;12.75;;;;;;;-0.14;99.24;99513.37;4176125;83;21156;-91
2022/02/03 08:17:00;;;;;;;19.85;12.43;;;;;;;-0.21;98.94;99503.53;4175644;83;21081;-91
2022/02/03 08:23:29;;;;;;;;;;;;;;;-0.15;99.55;99491.59;4260830;81;272373;-90
2022/02/03 08:29:46;;;;;;;23.38;11.35;;;;;;;0.07;99.35;99496.90;4287948;80;20158;-92
2022/02/03 08:35:35;;;;;;;23.27;10.38;;;;;;;0.09;98.79;99488.80;4289477;80;21066;-92
2022/02/03 08:41:29;;;;;;;26.50;12.45;;;;;;;0.19;98.76;99489.18;4248409;81;21094;-92
2022/02/03 08:47:33;;;;;;;22.20;12.23;;;;;;;0.28;98.77;99472.59;4254127;82;21584;-91
2022/02/03 08:53:45;;;;;;;25.32;12.20;;;;;;;1.07;99.46;99458.65;4301340;79;21058;-92
2022/02/03 09:00:14;;;;;;;25.05;11.88;;;;;;;1.58;99.49;99459.94;4364842;80;21117;-92
2022/02/03 10:04:25;;;;;;;22.67;10.05;;;;;;;2.81;91.06;99446.54;4227822;82;21086;-93
2022/02/03 10:10:27;;;;;;;16.50;8.80;;;;;;;2.58;87.30;99437.73;4369941;80;21080;-94
2022/02/03 10:16:33;;;;;;;20.15;9.00;;;;;;;2.82;91.11;99432.70;4371438;80;21057;-93
2022/02/03 10:22:48;;;;;;;19.92;9.35;;;;;;;2.89;90.52;99423.59;4345683;80;20974;-93
2022/02/03 10:28:56;;;;;;;23.85;9.50;;;;;;;2.76;89.50;99420.98;4330385;80;21080;-92
2022/02/03 10:49:12;;;;;;;26.85;9.78;;;;;;;2.47;89.54;99401.27;4147133;82;21588;-93
2022/02/03 12:22:55;;;;;;;28.23;11.53;;;;;;;3.95;87.27;99356.10;4323466;79;21162;-94
2022/02/03 12:29:10;;;;;;;;;;;;;;;;;;;;;
2022/02/03 12:42:01;;;;;;;21.27;7.55;;;;;;;4.11;85.46;99344.98;4274638;79;21089;-92
2022/02/03 12:48:06;;;;;;;19.73;6.60;;;;;;;3.94;85.10;99341.53;4321478;80;21513;-93
2022/02/03 12:54:21;;;;;;;11.70;4.85;;;;;;;3.89;85.46;99324.89;4303379;78;21096;-93
2022/02/03 13:00:32;;;;;;;14.65;6.50;;;;;;;4.06;84.30;99326.74;4297355;80;21042;-92
2022/02/03 13:06:42;;;;;;;17.30;6.37;;;;;;;3.99;84.17;99312.92;4229111;82;21528;-92
2022/02/03 13:12:50;;;;;;;15.28;5.60;;;;;;;3.79;83.67;99304.92;4350682;79;21117;-94
2022/02/03 13:19:13;;;;;;;21.60;6.42;;;;;;;3.57;83.31;99323.30;4213621;81;21619;-93
2022/02/03 13:25:38;;;;;;;19.87;6.43;;;;;;;3.44;82.39;99318.84;4331432;78;21082;-93
2022/02/03 13:32:05;;;;;;;15.75;6.97;;;;;;;3.51;83.29;99311.05;4340885;80;21141;-92
2022/02/03 13:37:54;;;;;;;24.32;7.50;;;;;;;3.65;81.87;99303.54;4273665;80;21689;-91
2022/02/03 13:44:07;;;;;;;23.98;6.95;;;;;;;3.68;82.63;99298.83;4289734;80;21050;-93
2022/02/03 13:50:23;;;;;;;17.37;6.65;;;;;;;3.80;82.60;99304.37;4289354;81;21130;-92
2022/02/03 14:16:15;;;;;;;16.90;6.33;;;;;;;3.88;80.91;99267.80;4241983;82;21591;-93
2022/02/03 14:22:04;;;;;;;13.18;4.58;;;;;;;3.70;80.70;99259.48;4346121;80;21041;-92
2022/02/03 14:28:04;;;;;;;15.03;6.10;;;;;;;3.56;80.76;99245.89;4327013;80;21040;-91
2022/02/03 14:34:15;;;;;;;17.02;5.78;;;;;;;3.37;79.43;99238.14;4344967;78;21059;-92
2022/02/03 14:40:50;;;;;;;10.40;4.63;;;;;;;3.28;79.71;99244.13;4227403;83;21035;-91
2022/02/03 14:46:28;;;;;;;17.17;6.15;;;;;;;3.16;80.61;99238.02;4336205;80;21086;-91
2022/02/03 14:52:44;;;;;;;14.83;6.45;;;;;;;3.04;80.43;99237.88;4325703;80;21070;-91
2022/02/03 14:58:36;;;;;;;13.75;6.05;;;;;;;2.89;80.67;99238.37;4304898;80;21574;-91
2022/02/03 15:04:41;;;;;;;18.50;6.10;;;;;;;2.73;80.54;99229.14;4311333;80;21054;-91
2022/02/03 15:10:50;;;;;;;19.12;7.10;;;;;;;2.64;80.74;99228.89;4365337;80;21055;-91
2022/02/03 15:16:47;;;;;;;20.45;8.50;;;;;;;2.56;80.67;99228.33;4341024;80;21050;-92
2022/02/03 15:22:49;;;;;;;27.05;11.68;;;;;;;2.46;80.50;99224.59;4283182;80;21089;-92
2022/02/03 15:28:53;;;;;;;23.12;10.65;;;;;;;2.34;80.32;99231.95;4246047;80;21090;-91
2022/02/03 15:34:55;;;;;;;28.87;10.78;;;;;;;2.16;80.08;99237.06;4272419;80;21086;-91
2022/02/03 15:41:01;;;;;;;25.37;10.98;;;;;;;1.98;79.92;99229.23;4300918;80;21082;-91
2022/02/03 15:47:06;;;;;;;25.20;11.28;;;;;;;1.88;80.03;99229.53;4279987;79;21106;-91
2022/02/03 16:18:03;;;;;;;40.00;14.83;;;;;;;1.28;80.10;99217.09;4266212;81;21611;-92
2022/02/03 16:24:17;;;;;;;38.05;15.88;;;;;;;1.17;79.80;99210.37;4177391;83;21606;-90
2022/02/03 16:43:31;;;;;;;27.52;12.65;;;;;;;0.92;80.28;99202.37;4338828;80;21089;-91
2022/02/03 16:55:26;;;;;;;32.15;13.80;;;;;;;0.96;80.56;99194.44;4291263;80;21054;-90
2022/02/03 17:01:27;;;;;;;34.55;14.47;;;;;;;0.89;80.80;99200.83;4224595;83;21158;-91
2022/02/03 17:07:29;;;;;;;28.80;12.63;;;;;;;0.82;80.85;99193.16;4258607;81;21129;-90
2022/02/03 17:13:30;;;;;;;24.10;11.53;;;;;;;0.83;80.76;99183.97;4285849;80;21114;-90
2022/02/03 17:19:31;;;;;;;24.90;10.40;;;;;;;0.87;80.71;99186.31;4289218;80;21078;-92
2022/02/03 17:25:51;;;;;;;26.15;11.03;;;;;;;0.87;80.79;99176.07;4299188;80;21071;-90
2022/02/03 17:31:58;;;;;;;25.85;11.40;;;;;;;0.86;80.86;99168.53;4279956;81;21069;-90
2022/02/03 18:09:48;;;;;;;27.10;11.57;;;;;;;0.88;80.44;99142.62;4283268;81;21137;-90
2022/02/03 18:53:28;;;;;;;22.55;9.48;;;;;;;0.47;81.32;99113.19;4295916;80;21031;-89
2022/02/03 19:00:01;;;;;;;23.67;9.18;;;;;;;0.56;81.43;99107.88;4255918;82;21051;-89
2022/02/03 20:08:26;;;;;;;43.50;19.62;;;;;;;0.58;82.16;99026.20;4337364;79;21042;-88
2022/02/03 20:14:20;;;;;;;38.25;16.55;;;;;;;0.63;82.24;99019.31;4304781;80;21106;-89
2022/02/03 20:20:22;;;;;;;34.90;14.85;;;;;;;0.65;82.38;99017.12;4329319;80;21042;-90
2022/02/03 20:26:23;;;;;;;33.00;15.65;;;;;;;0.63;82.08;99003.95;4335266;80;21053;-89
2022/02/03 20:32:28;;;;;;;29.87;13.38;;;;;;;0.62;82.19;98995.64;4210093;83;21727;-88
2022/02/03 20:38:28;;;;;;;35.08;14.23;;;;;;;0.63;82.03;98991.84;4316772;79;21407;-89
2022/02/03 20:44:29;;;;;;;40.05;15.78;;;;;;;0.64;82.27;98984.55;4283801;80;21019;-89
2022/02/03 20:50:31;;;;;;;36.50;16.02;;;;;;;0.66;82.32;98979.66;4328676;80;21944;-88
2022/02/03 20:56:32;;;;;;;33.65;13.28;;;;;;;0.69;82.27;98979.04;4316782;79;21089;-88
2022/02/03 21:02:43;;;;;;;32.23;13.88;;;;;;;0.68;81.88;98980.93;4352538;79;21034;-91
2022/02/03 21:08:42;;;;;;;41.05;15.60;;;;;;;0.62;82.16;98975.44;4317187;80;20999;-89
2022/02/03 21:14:43;;;;;;;37.08;13.83;;;;;;;0.51;82.39;98969.27;4314193;80;21003;-88
2022/02/03 21:20:46;;;;;;;38.85;15.30;;;;;;;0.51;82.39;98969.27;4315394;80;21530;-88
2022/02/03 21:26:48;;;;;;;37.30;16.50;;;;;;;0.47;82.75;98970.44;4366891;80;21089;-88
2022/02/03 21:32:50;;;;;;;40.30;17.12;;;;;;;0.43;82.76;98968.67;4350149;79;21547;-89
2022/02/03 21:38:52;;;;;;;44.35;18.23;;;;;;;0.41;82.81;98963.59;4348023;80;21110;-89
2022/02/03 21:44:53;;;;;;;40.63;19.37;;;;;;;0.41;82.81;98963.59;4330666;80;21066;-89
2022/02/03 21:50:59;;;;;;;46.60;17.92;;;;;;;0.36;82.87;98956.99;4323718;80;21083;-89
2022/02/03 21:56:59;;;;;;;42.43;19.32;;;;;;;0.32;83.21;98949.84;4355387;79;21653;-89
2022/02/03 22:03:01;;;;;;;47.80;20.25;;;;;;;0.32;83.21;98949.84;4329149;80;21170;-88
2022/02/03 22:09:03;;;;;;;50.00;23.32;;;;;;;0.31;83.70;98950.96;4298744;80;21090;-88
2022/02/03 22:15:06;;;;;;;54.85;23.12;;;;;;;0.32;83.79;98947.16;4314942;81;21014;-89
2022/02/03 22:21:17;;;;;;;43.58;17.95;;;;;;;0.34;83.89;98950.34;4249176;81;21077;-88
2022/02/03 22:45:50;;;;;;;49.33;21.07;;;;;;;0.11;84.82;98940.72;4405142;80;22146;-88
2022/02/03 22:51:41;;;;;;;54.08;23.75;;;;;;;0.22;85.09;98964.93;4398673;78;21066;-89
2022/02/03 22:57:52;;;;;;;67.58;26.00;;;;;;;0.24;85.17;98959.47;4395893;79;21081;-89
2022/02/03 23:03:45;;;;;;;60.08;24.63;;;;;;;0.28;85.27;98958.31;4394409;78;21049;-89
2022/02/03 23:09:58;;;;;;;56.70;22.32;;;;;;;0.31;85.50;98949.61;4405384;78;22228;-90
2022/02/03 23:16:04;;;;;;;59.70;24.00;;;;;;;0.31;85.50;98940.19;4404463;78;21019;-88
2022/02/03 23:22:13;;;;;;;55.73;22.30;;;;;;;0.37;85.44;98950.52;4404601;79;21244;-89
2022/02/03 23:28:24;;;;;;;57.10;23.90;;;;;;;0.50;85.68;98964.43;4402959;80;20967;-88
2022/02/03 23:34:19;;;;;;;58.38;22.45;;;;;;;0.57;85.64;98963.45;4405769;78;21011;-88
2022/02/03 23:47:11;;;;;;;54.63;22.65;;;;;;;0.64;85.69;98950.88;4412365;78;22075;-89
